sensor_id;sensor_type;location;lat;lon;timestamp;pressure;altitude;pressure_sealevel;temperature;humidity
11987;BME280;6053;51.382;6.768;2023-02-22T00:00:59;101166.88;;;11.71;100.00
11987;BME280;6053;51.382;6.768;2023-02-22T00:03:34;101175.63;;;11.68;100.00
11987;BME280;6053;51.382;6.768;2023-02-22T00:06:04;101176.06;;;11.65;100.00
11987;BME280;6053;51.382;6.768;2023-02-22T00:08:35;101169.25;;;11.67;100.00
11987;BME280;6053;51.382;6.768;2023-02-22T00:11:05;101168.81;;;11.70;100.00
11987;BME280;6053;51.382;6.768;2023-02-22T00:13:37;101165.47;;;11.62;100.00
11987;BME280;6053;51.382;6.768;2023-02-22T00:16:06;101167.16;;;11.63;100.00
11987;BME280;6053;51.382;6.768;2023-02-22T00:18:35;101165.88;;;11.65;100.00
11987;BME280;6053;51.382;6.768;2023-02-22T00:21:04;101166.09;;;11.64;100.00
11987;BME280;6053;51.382;6.768;2023-02-22T00:23:39;101158.88;;;11.63;100.00
11987;BME280;6053;51.382;6.768;2023-02-22T00:26:09;101157.19;;;11.62;100.00
11987;BME280;6053;51.382;6.768;2023-02-22T00:28:40;101159.13;;;11.61;100.00
11987;BME280;6053;51.382;6.768;2023-02-22T00:31:09;101157.19;;;11.62;100.00
11987;BME280;6053;51.382;6.768;2023-02-22T00:33:38;101158.72;;;11.57;100.00
11987;BME280;6053;51.382;6.768;2023-02-22T00:36:08;101152.56;;;11.55;100.00
11987;BME280;6053;51.382;6.768;2023-02-22T00:38:38;101149.81;;;11.55;100.00
11987;BME280;6053;51.382;6.768;2023-02-22T00:41:07;101151.94;;;11.53;100.00
11987;BME280;6053;51.382;6.768;2023-02-22T00:43:36;101150.50;;;11.51;100.00
11987;BME280;6053;51.382;6.768;2023-02-22T00:46:06;101149.19;;;11.53;100.00
11987;BME280;6053;51.382;6.768;2023-02-22T00:48:35;101144.75;;;11.52;100.00
11987;BME280;6053;51.382;6.768;2023-02-22T00:51:04;101146.91;;;11.50;100.00
11987;BME280;6053;51.382;6.768;2023-02-22T00:53:32;101135.84;;;11.50;100.00
11987;BME280;6053;51.382;6.768;2023-02-22T00:56:01;101140.50;;;11.50;100.00
11987;BME280;6053;51.382;6.768;2023-02-22T00:58:30;101135.47;;;11.47;100.00
11987;BME280;6053;51.382;6.768;2023-02-22T01:00:58;101139.53;;;11.44;100.00
11987;BME280;6053;51.382;6.768;2023-02-22T01:03:28;101134.22;;;11.43;100.00
11987;BME280;6053;51.382;6.768;2023-02-22T01:05:58;101126.78;;;11.43;100.00
11987;BME280;6053;51.382;6.768;2023-02-22T01:08:27;101124.00;;;11.43;100.00
11987;BME280;6053;51.382;6.768;2023-02-22T01:10:57;101123.88;;;11.38;100.00
11987;BME280;6053;51.382;6.768;2023-02-22T01:13:26;101123.88;;;11.38;100.00
11987;BME280;6053;51.382;6.768;2023-02-22T01:15:54;101124.94;;;11.37;100.00
11987;BME280;6053;51.382;6.768;2023-02-22T01:18:24;101123.03;;;11.38;100.00
11987;BME280;6053;51.382;6.768;2023-02-22T01:20:54;101114.94;;;11.36;100.00
11987;BME280;6053;51.382;6.768;2023-02-22T01:23:23;101119.25;;;11.32;100.00
11987;BME280;6053;51.382;6.768;2023-02-22T01:25:51;101128.38;;;11.32;100.00
11987;BME280;6053;51.382;6.768;2023-02-22T01:28:20;101123.22;;;11.18;100.00
11987;BME280;6053;51.382;6.768;2023-02-22T01:30:49;101120.28;;;11.13;100.00
11987;BME280;6053;51.382;6.768;2023-02-22T01:33:18;101119.63;;;11.17;100.00
11987;BME280;6053;51.382;6.768;2023-02-22T01:35:46;101120.59;;;11.23;100.00
11987;BME280;6053;51.382;6.768;2023-02-22T01:38:18;101117.63;;;11.24;100.00
11987;BME280;6053;51.382;6.768;2023-02-22T01:40:49;101111.03;;;11.25;100.00
11987;BME280;6053;51.382;6.768;2023-02-22T01:43:21;101121.25;;;11.43;100.00
11987;BME280;6053;51.382;6.768;2023-02-22T01:45:59;101106.34;;;11.26;100.00
11987;BME280;6053;51.382;6.768;2023-02-22T01:48:34;101106.19;;;11.21;100.00
11987;BME280;6053;51.382;6.768;2023-02-22T01:51:08;101107.56;;;11.30;100.00
11987;BME280;6053;51.382;6.768;2023-02-22T01:53:44;101094.25;;;11.27;100.00
11987;BME280;6053;51.382;6.768;2023-02-22T01:56:15;101102.41;;;11.40;100.00
11987;BME280;6053;51.382;6.768;2023-02-22T01:58:47;101092.78;;;11.24;100.00
11987;BME280;6053;51.382;6.768;2023-02-22T02:01:19;101091.69;;;11.25;100.00
11987;BME280;6053;51.382;6.768;2023-02-22T02:03:50;101092.06;;;11.11;100.00
11987;BME280;6053;51.382;6.768;2023-02-22T02:06:20;101085.66;;;11.17;100.00
11987;BME280;6053;51.382;6.768;2023-02-22T02:08:56;101079.63;;;11.20;100.00
11987;BME280;6053;51.382;6.768;2023-02-22T02:11:27;101084.72;;;11.23;100.00
11987;BME280;6053;51.382;6.768;2023-02-22T02:13:57;101090.53;;;11.33;100.00
11987;BME280;6053;51.382;6.768;2023-02-22T02:16:31;101076.34;;;11.29;100.00
11987;BME280;6053;51.382;6.768;2023-02-22T02:19:03;101075.06;;;11.32;100.00
11987;BME280;6053;51.382;6.768;2023-02-22T02:22:09;101084.03;;;11.27;100.00
11987;BME280;6053;51.382;6.768;2023-02-22T02:25:06;101078.88;;;11.13;100.00
11987;BME280;6053;51.382;6.768;2023-02-22T02:27:53;101070.22;;;11.27;100.00
11987;BME280;6053;51.382;6.768;2023-02-22T02:30:55;101073.06;;;11.21;100.00
11987;BME280;6053;51.382;6.768;2023-02-22T02:33:41;101073.53;;;11.18;100.00
11987;BME280;6053;51.382;6.768;2023-02-22T02:36:16;101068.13;;;11.23;100.00
11987;BME280;6053;51.382;6.768;2023-02-22T02:38:52;101069.59;;;11.25;100.00
11987;BME280;6053;51.382;6.768;2023-02-22T02:41:25;101068.06;;;11.29;100.00
11987;BME280;6053;51.382;6.768;2023-02-22T02:43:59;101066.00;;;11.25;100.00
11987;BME280;6053;51.382;6.768;2023-02-22T02:46:32;101055.41;;;11.22;100.00
11987;BME280;6053;51.382;6.768;2023-02-22T02:49:07;101050.41;;;11.12;100.00
11987;BME280;6053;51.382;6.768;2023-02-22T02:51:40;101049.06;;;11.21;100.00
11987;BME280;6053;51.382;6.768;2023-02-22T02:54:12;101047.50;;;11.25;100.00
11987;BME280;6053;51.382;6.768;2023-02-22T02:56:42;101041.63;;;11.40;100.00
11987;BME280;6053;51.382;6.768;2023-02-22T02:59:24;101043.75;;;11.20;100.00
11987;BME280;6053;51.382;6.768;2023-02-22T03:02:06;101039.59;;;11.29;100.00
11987;BME280;6053;51.382;6.768;2023-02-22T03:04:59;101035.00;;;11.23;100.00
11987;BME280;6053;51.382;6.768;2023-02-22T03:07:44;101032.47;;;11.21;100.00
11987;BME280;6053;51.382;6.768;2023-02-22T03:10:24;101044.06;;;11.12;100.00
11987;BME280;6053;51.382;6.768;2023-02-22T03:12:59;101031.84;;;11.19;100.00
11987;BME280;6053;51.382;6.768;2023-02-22T03:15:39;101025.34;;;11.14;100.00
11987;BME280;6053;51.382;6.768;2023-02-22T03:18:17;101023.50;;;11.07;100.00
11987;BME280;6053;51.382;6.768;2023-02-22T03:20:57;101025.28;;;11.20;100.00
11987;BME280;6053;51.382;6.768;2023-02-22T03:23:31;101016.28;;;10.88;100.00
11987;BME280;6053;51.382;6.768;2023-02-22T03:26:06;101017.59;;;11.04;100.00
11987;BME280;6053;51.382;6.768;2023-02-22T03:28:37;101028.72;;;10.97;100.00
11987;BME280;6053;51.382;6.768;2023-02-22T03:31:11;101018.91;;;10.76;100.00
11987;BME280;6053;51.382;6.768;2023-02-22T03:33:44;101011.84;;;10.87;100.00
11987;BME280;6053;51.382;6.768;2023-02-22T03:36:20;101015.59;;;11.11;100.00
11987;BME280;6053;51.382;6.768;2023-02-22T03:38:52;101020.19;;;10.80;100.00
11987;BME280;6053;51.382;6.768;2023-02-22T03:41:23;101011.66;;;10.82;100.00
11987;BME280;6053;51.382;6.768;2023-02-22T03:43:54;101018.72;;;10.96;100.00
11987;BME280;6053;51.382;6.768;2023-02-22T03:46:27;101018.44;;;11.04;100.00
11987;BME280;6053;51.382;6.768;2023-02-22T03:49:01;101023.50;;;11.07;100.00
11987;BME280;6053;51.382;6.768;2023-02-22T03:51:35;101023.72;;;11.06;100.00
11987;BME280;6053;51.382;6.768;2023-02-22T03:54:07;101026.94;;;11.03;100.00
11987;BME280;6053;51.382;6.768;2023-02-22T03:56:47;101018.56;;;11.09;100.00
11987;BME280;6053;51.382;6.768;2023-02-22T03:59:17;101021.97;;;11.12;100.00
11987;BME280;6053;51.382;6.768;2023-02-22T04:01:51;101025.19;;;11.08;100.00
11987;BME280;6053;51.382;6.768;2023-02-22T04:04:20;101019.03;;;11.06;100.00
11987;BME280;6053;51.382;6.768;2023-02-22T04:06:51;101022.94;;;10.99;100.00
11987;BME280;6053;51.382;6.768;2023-02-22T04:09:20;101019.59;;;10.97;100.00
11987;BME280;6053;51.382;6.768;2023-02-22T04:11:49;101021.34;;;10.91;100.00
11987;BME280;6053;51.382;6.768;2023-02-22T04:14:18;101017.28;;;10.94;100.00
11987;BME280;6053;51.382;6.768;2023-02-22T04:16:49;101024.84;;;10.80;100.00
11987;BME280;6053;51.382;6.768;2023-02-22T04:19:18;101028.09;;;10.95;100.00
11987;BME280;6053;51.382;6.768;2023-02-22T04:21:47;101013.81;;;10.98;100.00
11987;BME280;6053;51.382;6.768;2023-02-22T04:24:17;101018.50;;;10.98;100.00
11987;BME280;6053;51.382;6.768;2023-02-22T04:26:45;101017.09;;;10.89;100.00
11987;BME280;6053;51.382;6.768;2023-02-22T04:29:14;101010.91;;;10.93;100.00
11987;BME280;6053;51.382;6.768;2023-02-22T04:31:43;101007.84;;;11.01;100.00
11987;BME280;6053;51.382;6.768;2023-02-22T04:34:11;101008.31;;;10.98;100.00
11987;BME280;6053;51.382;6.768;2023-02-22T04:36:40;100998.38;;;10.72;100.00
11987;BME280;6053;51.382;6.768;2023-02-22T04:39:11;101002.84;;;10.73;100.00
11987;BME280;6053;51.382;6.768;2023-02-22T04:41:41;101001.00;;;10.85;100.00
11987;BME280;6053;51.382;6.768;2023-02-22T04:44:09;100991.31;;;10.76;100.00
11987;BME280;6053;51.382;6.768;2023-02-22T04:46:38;100991.31;;;10.76;100.00
11987;BME280;6053;51.382;6.768;2023-02-22T04:49:06;100992.34;;;10.82;100.00
11987;BME280;6053;51.382;6.768;2023-02-22T04:51:35;100986.69;;;10.95;100.00
11987;BME280;6053;51.382;6.768;2023-02-22T04:54:04;100980.63;;;10.87;100.00
11987;BME280;6053;51.382;6.768;2023-02-22T04:56:32;100983.69;;;10.78;100.00
11987;BME280;6053;51.382;6.768;2023-02-22T04:59:02;100977.31;;;10.78;100.00
11987;BME280;6053;51.382;6.768;2023-02-22T05:01:32;100980.97;;;10.72;100.00
11987;BME280;6053;51.382;6.768;2023-02-22T05:04:01;100965.75;;;10.88;100.00
11987;BME280;6053;51.382;6.768;2023-02-22T05:06:30;100968.34;;;10.82;100.00
11987;BME280;6053;51.382;6.768;2023-02-22T05:08:58;100967.69;;;10.44;100.00
11987;BME280;6053;51.382;6.768;2023-02-22T05:11:27;100961.91;;;10.70;100.00
11987;BME280;6053;51.382;6.768;2023-02-22T05:13:56;100959.91;;;10.77;100.00
11987;BME280;6053;51.382;6.768;2023-02-22T05:16:26;100968.53;;;10.12;100.00
11987;BME280;6053;51.382;6.768;2023-02-22T05:18:54;100959.31;;;10.25;100.00
11987;BME280;6053;51.382;6.768;2023-02-22T05:21:23;100956.00;;;10.17;100.00
11987;BME280;6053;51.382;6.768;2023-02-22T05:23:52;100957.50;;;10.12;100.00
11987;BME280;6053;51.382;6.768;2023-02-22T05:26:20;100960.72;;;10.59;100.00
11987;BME280;6053;51.382;6.768;2023-02-22T05:28:49;100950.03;;;10.26;100.00
11987;BME280;6053;51.382;6.768;2023-02-22T05:31:17;100951.03;;;10.25;100.00
11987;BME280;6053;51.382;6.768;2023-02-22T05:33:48;100952.25;;;10.79;100.00
11987;BME280;6053;51.382;6.768;2023-02-22T05:36:16;100948.94;;;10.89;100.00
11987;BME280;6053;51.382;6.768;2023-02-22T05:38:45;100941.50;;;10.90;100.00
11987;BME280;6053;51.382;6.768;2023-02-22T05:41:14;100942.81;;;11.05;100.00
11987;BME280;6053;51.382;6.768;2023-02-22T05:43:43;100944.06;;;10.91;100.00
11987;BME280;6053;51.382;6.768;2023-02-22T05:46:12;100944.44;;;10.95;100.00
11987;BME280;6053;51.382;6.768;2023-02-22T05:48:41;100941.13;;;10.86;100.00
11987;BME280;6053;51.382;6.768;2023-02-22T05:51:11;100946.66;;;10.86;100.00
11987;BME280;6053;51.382;6.768;2023-02-22T05:53:39;100946.19;;;10.89;100.00
11987;BME280;6053;51.382;6.768;2023-02-22T05:56:08;100941.00;;;10.37;100.00
11987;BME280;6053;51.382;6.768;2023-02-22T05:58:37;100941.75;;;10.70;100.00
11987;BME280;6053;51.382;6.768;2023-02-22T06:01:06;100930.53;;;10.83;100.00
11987;BME280;6053;51.382;6.768;2023-02-22T06:03:34;100941.09;;;10.49;100.00
11987;BME280;6053;51.382;6.768;2023-02-22T06:06:03;100928.16;;;10.68;100.00
11987;BME280;6053;51.382;6.768;2023-02-22T06:08:33;100933.44;;;10.51;100.00
11987;BME280;6053;51.382;6.768;2023-02-22T06:11:02;100929.53;;;10.59;100.00
11987;BME280;6053;51.382;6.768;2023-02-22T06:13:30;100938.31;;;10.74;100.00
11987;BME280;6053;51.382;6.768;2023-02-22T06:15:59;100925.72;;;10.60;100.00
11987;BME280;6053;51.382;6.768;2023-02-22T06:18:27;100931.94;;;10.74;100.00
11987;BME280;6053;51.382;6.768;2023-02-22T06:20:58;100928.78;;;10.70;100.00
11987;BME280;6053;51.382;6.768;2023-02-22T06:23:26;100923.94;;;10.66;100.00
11987;BME280;6053;51.382;6.768;2023-02-22T06:25:56;100921.03;;;10.79;100.00
11987;BME280;6053;51.382;6.768;2023-02-22T06:28:25;100921.50;;;10.76;100.00
11987;BME280;6053;51.382;6.768;2023-02-22T06:30:54;100931.16;;;10.67;100.00
11987;BME280;6053;51.382;6.768;2023-02-22T06:33:22;100921.41;;;10.82;100.00
11987;BME280;6053;51.382;6.768;2023-02-22T06:35:51;100922.97;;;10.78;100.00
11987;BME280;6053;51.382;6.768;2023-02-22T06:38:23;100922.44;;;10.70;100.00
11987;BME280;6053;51.382;6.768;2023-02-22T06:40:54;100920.81;;;10.62;100.00
11987;BME280;6053;51.382;6.768;2023-02-22T06:43:24;100927.72;;;10.71;100.00
11987;BME280;6053;51.382;6.768;2023-02-22T06:45:53;100924.81;;;10.84;100.00
11987;BME280;6053;51.382;6.768;2023-02-22T06:48:21;100929.63;;;10.89;100.00
11987;BME280;6053;51.382;6.768;2023-02-22T06:50:50;100928.03;;;10.81;100.00
11987;BME280;6053;51.382;6.768;2023-02-22T06:53:18;100929.25;;;10.67;100.00
11987;BME280;6053;51.382;6.768;2023-02-22T06:55:47;100926.63;;;10.72;100.00
11987;BME280;6053;51.382;6.768;2023-02-22T06:58:16;100924.88;;;10.78;100.00
11987;BME280;6053;51.382;6.768;2023-02-22T07:00:45;100912.97;;;10.59;100.00
11987;BME280;6053;51.382;6.768;2023-02-22T07:03:14;100924.34;;;10.69;100.00
11987;BME280;6053;51.382;6.768;2023-02-22T07:05:43;100924.34;;;10.69;100.00
11987;BME280;6053;51.382;6.768;2023-02-22T07:08:12;100918.34;;;10.54;100.00
11987;BME280;6053;51.382;6.768;2023-02-22T07:10:41;100911.28;;;10.40;100.00
11987;BME280;6053;51.382;6.768;2023-02-22T07:13:09;100920.13;;;10.67;100.00
11987;BME280;6053;51.382;6.768;2023-02-22T07:15:38;100916.22;;;10.74;100.00
11987;BME280;6053;51.382;6.768;2023-02-22T07:18:08;100914.41;;;10.87;100.00
11987;BME280;6053;51.382;6.768;2023-02-22T07:20:36;100918.59;;;10.89;100.00
11987;BME280;6053;51.382;6.768;2023-02-22T07:23:05;100907.41;;;10.84;100.00
11987;BME280;6053;51.382;6.768;2023-02-22T07:25:34;100903.94;;;10.89;100.00
11987;BME280;6053;51.382;6.768;2023-02-22T07:28:03;100907.72;;;10.94;100.00
11987;BME280;6053;51.382;6.768;2023-02-22T07:30:32;100908.47;;;11.01;100.00
11987;BME280;6053;51.382;6.768;2023-02-22T07:33:03;100904.25;;;10.99;100.00
11987;BME280;6053;51.382;6.768;2023-02-22T07:35:34;100912.69;;;11.04;100.00
11987;BME280;6053;51.382;6.768;2023-02-22T07:38:04;100905.53;;;11.15;100.00
11987;BME280;6053;51.382;6.768;2023-02-22T07:40:36;100905.38;;;11.09;100.00
11987;BME280;6053;51.382;6.768;2023-02-22T07:43:12;100905.38;;;11.09;100.00
11987;BME280;6053;51.382;6.768;2023-02-22T07:45:41;100900.84;;;11.15;100.00
11987;BME280;6053;51.382;6.768;2023-02-22T07:48:10;100897.38;;;11.20;100.00
11987;BME280;6053;51.382;6.768;2023-02-22T07:50:44;100898.00;;;11.22;100.00
11987;BME280;6053;51.382;6.768;2023-02-22T07:53:15;100913.53;;;11.04;100.00
11987;BME280;6053;51.382;6.768;2023-02-22T07:55:44;100898.19;;;11.08;100.00
11987;BME280;6053;51.382;6.768;2023-02-22T07:58:14;100889.69;;;11.10;100.00
11987;BME280;6053;51.382;6.768;2023-02-22T08:00:43;100893.06;;;10.94;100.00
11987;BME280;6053;51.382;6.768;2023-02-22T08:03:15;100891.75;;;11.15;100.00
11987;BME280;6053;51.382;6.768;2023-02-22T08:05:47;100890.81;;;11.21;100.00
11987;BME280;6053;51.382;6.768;2023-02-22T08:08:17;100885.88;;;11.23;100.00
11987;BME280;6053;51.382;6.768;2023-02-22T08:10:46;100888.47;;;11.36;100.00
11987;BME280;6053;51.382;6.768;2023-02-22T08:13:16;100894.78;;;11.55;100.00
11987;BME280;6053;51.382;6.768;2023-02-22T08:15:45;100889.25;;;11.55;100.00
11987;BME280;6053;51.382;6.768;2023-02-22T08:18:17;100881.78;;;11.44;100.00
11987;BME280;6053;51.382;6.768;2023-02-22T08:20:48;100883.94;;;11.53;100.00
11987;BME280;6053;51.382;6.768;2023-02-22T08:23:19;100886.03;;;11.58;100.00
11987;BME280;6053;51.382;6.768;2023-02-22T08:25:48;100877.84;;;11.63;100.00
11987;BME280;6053;51.382;6.768;2023-02-22T08:28:19;100872.59;;;11.62;100.00
11987;BME280;6053;51.382;6.768;2023-02-22T08:30:50;100871.59;;;11.56;100.00
11987;BME280;6053;51.382;6.768;2023-02-22T08:33:18;100868.50;;;11.64;100.00
11987;BME280;6053;51.382;6.768;2023-02-22T08:35:49;100874.31;;;11.74;100.00
11987;BME280;6053;51.382;6.768;2023-02-22T08:38:20;100871.53;;;11.74;100.00
11987;BME280;6053;51.382;6.768;2023-02-22T08:40:49;100875.25;;;11.80;100.00
11987;BME280;6053;51.382;6.768;2023-02-22T08:43:19;100871.91;;;11.78;100.00
11987;BME280;6053;51.382;6.768;2023-02-22T08:45:48;100870.44;;;11.75;100.00
11987;BME280;6053;51.382;6.768;2023-02-22T08:48:18;100869.13;;;11.78;100.00
11987;BME280;6053;51.382;6.768;2023-02-22T08:50:48;100865.66;;;11.83;100.00
11987;BME280;6053;51.382;6.768;2023-02-22T08:53:17;100864.47;;;11.90;100.00
11987;BME280;6053;51.382;6.768;2023-02-22T08:55:46;100869.66;;;11.87;100.00
11987;BME280;6053;51.382;6.768;2023-02-22T08:58:16;100867.50;;;11.89;100.00
11987;BME280;6053;51.382;6.768;2023-02-22T09:00:45;100862.88;;;11.83;100.00
11987;BME280;6053;51.382;6.768;2023-02-22T09:03:14;100866.53;;;12.07;100.00
11987;BME280;6053;51.382;6.768;2023-02-22T09:05:43;100863.09;;;12.11;100.00
11987;BME280;6053;51.382;6.768;2023-02-22T09:08:15;100858.03;;;11.66;100.00
11987;BME280;6053;51.382;6.768;2023-02-22T09:10:44;100862.47;;;11.55;100.00
11987;BME280;6053;51.382;6.768;2023-02-22T09:13:13;100860.81;;;11.24;100.00
11987;BME280;6053;51.382;6.768;2023-02-22T09:15:41;100856.31;;;11.53;100.00
11987;BME280;6053;51.382;6.768;2023-02-22T09:18:12;100854.66;;;11.94;100.00
11987;BME280;6053;51.382;6.768;2023-02-22T09:20:41;100859.47;;;11.87;100.00
11987;BME280;6053;51.382;6.768;2023-02-22T09:23:11;100864.34;;;11.43;100.00
11987;BME280;6053;51.382;6.768;2023-02-22T09:25:40;100852.75;;;11.65;100.00
11987;BME280;6053;51.382;6.768;2023-02-22T09:28:09;100847.25;;;11.65;100.00
11987;BME280;6053;51.382;6.768;2023-02-22T09:30:38;100852.31;;;11.79;100.00
11987;BME280;6053;51.382;6.768;2023-02-22T09:33:08;100848.75;;;11.49;100.00
11987;BME280;6053;51.382;6.768;2023-02-22T09:35:38;100840.72;;;11.47;100.00
11987;BME280;6053;51.382;6.768;2023-02-22T09:38:09;100852.88;;;11.58;100.00
11987;BME280;6053;51.382;6.768;2023-02-22T09:40:42;100853.50;;;11.72;100.00
11987;BME280;6053;51.382;6.768;2023-02-22T09:43:26;100854.84;;;11.81;100.00
11987;BME280;6053;51.382;6.768;2023-02-22T09:48:59;100841.66;;;11.41;100.00
11987;BME280;6053;51.382;6.768;2023-02-22T09:51:34;100845.88;;;11.55;100.00
11987;BME280;6053;51.382;6.768;2023-02-22T09:54:12;100840.00;;;11.52;100.00
11987;BME280;6053;51.382;6.768;2023-02-22T09:56:45;100841.78;;;11.46;100.00
11987;BME280;6053;51.382;6.768;2023-02-22T09:59:21;100839.28;;;11.56;100.00
11987;BME280;6053;51.382;6.768;2023-02-22T10:01:57;100839.91;;;11.17;100.00
11987;BME280;6053;51.382;6.768;2023-02-22T10:04:38;100839.50;;;11.13;100.00
11987;BME280;6053;51.382;6.768;2023-02-22T10:07:17;100834.50;;;11.64;100.00
11987;BME280;6053;51.382;6.768;2023-02-22T10:09:48;100836.25;;;12.12;100.00
11987;BME280;6053;51.382;6.768;2023-02-22T10:12:26;100832.31;;;11.54;100.00
11987;BME280;6053;51.382;6.768;2023-02-22T10:18:26;100833.75;;;11.15;100.00
11987;BME280;6053;51.382;6.768;2023-02-22T10:21:02;100820.81;;;11.57;100.00
11987;BME280;6053;51.382;6.768;2023-02-22T10:23:40;100820.03;;;11.38;100.00
11987;BME280;6053;51.382;6.768;2023-02-22T10:26:15;100819.09;;;11.44;100.00
11987;BME280;6053;51.382;6.768;2023-02-22T10:28:51;100816.31;;;11.44;100.00
11987;BME280;6053;51.382;6.768;2023-02-22T10:31:25;100804.22;;;11.57;100.00
11987;BME280;6053;51.382;6.768;2023-02-22T10:33:58;100811.97;;;12.14;100.00
11987;BME280;6053;51.382;6.768;2023-02-22T10:36:28;100810.91;;;12.15;100.00
11987;BME280;6053;51.382;6.768;2023-02-22T10:38:59;100803.88;;;12.47;100.00
11987;BME280;6053;51.382;6.768;2023-02-22T10:41:30;100806.88;;;12.46;100.00
11987;BME280;6053;51.382;6.768;2023-02-22T10:44:01;100802.28;;;12.63;100.00
11987;BME280;6053;51.382;6.768;2023-02-22T10:46:31;100795.19;;;12.56;100.00
11987;BME280;6053;51.382;6.768;2023-02-22T10:49:03;100790.28;;;12.86;100.00
11987;BME280;6053;51.382;6.768;2023-02-22T10:51:34;100786.28;;;13.23;100.00
11987;BME280;6053;51.382;6.768;2023-02-22T10:54:18;100788.84;;;13.12;100.00
11987;BME280;6053;51.382;6.768;2023-02-22T10:56:52;100787.91;;;13.07;100.00
11987;BME280;6053;51.382;6.768;2023-02-22T10:59:28;100790.44;;;12.80;100.00
11987;BME280;6053;51.382;6.768;2023-02-22T11:01:59;100787.28;;;12.36;100.00
11987;BME280;6053;51.382;6.768;2023-02-22T11:04:44;100780.53;;;12.43;100.00
11987;BME280;6053;51.382;6.768;2023-02-22T11:07:20;100776.91;;;12.55;100.00
11987;BME280;6053;51.382;6.768;2023-02-22T11:09:52;100778.53;;;12.79;100.00
11987;BME280;6053;51.382;6.768;2023-02-22T11:12:27;100781.63;;;12.83;100.00
11987;BME280;6053;51.382;6.768;2023-02-22T11:14:59;100780.16;;;12.92;100.00
11987;BME280;6053;51.382;6.768;2023-02-22T11:17:48;100761.97;;;12.96;100.00
11987;BME280;6053;51.382;6.768;2023-02-22T11:20:18;100772.03;;;13.02;100.00
11987;BME280;6053;51.382;6.768;2023-02-22T11:22:52;100766.44;;;12.57;100.00
11987;BME280;6053;51.382;6.768;2023-02-22T11:25:25;100768.13;;;12.86;100.00
11987;BME280;6053;51.382;6.768;2023-02-22T11:27:55;100759.78;;;12.98;100.00
11987;BME280;6053;51.382;6.768;2023-02-22T11:30:35;100770.13;;;13.03;100.00
11987;BME280;6053;51.382;6.768;2023-02-22T11:33:15;100774.84;;;12.90;100.00
11987;BME280;6053;51.382;6.768;2023-02-22T11:35:50;100761.97;;;12.96;100.00
11987;BME280;6053;51.382;6.768;2023-02-22T11:38:21;100766.34;;;13.09;100.00
11987;BME280;6053;51.382;6.768;2023-02-22T11:41:13;100764.56;;;13.03;100.00
11987;BME280;6053;51.382;6.768;2023-02-22T11:43:44;100758.34;;;12.95;100.00
11987;BME280;6053;51.382;6.768;2023-02-22T11:46:17;100755.63;;;13.12;100.00
11987;BME280;6053;51.382;6.768;2023-02-22T11:48:57;100751.94;;;13.24;100.00
11987;BME280;6053;51.382;6.768;2023-02-22T11:51:47;100748.03;;;13.36;100.00
11987;BME280;6053;51.382;6.768;2023-02-22T11:54:45;100746.22;;;13.13;100.00
11987;BME280;6053;51.382;6.768;2023-02-22T11:57:28;100744.72;;;13.23;100.00
11987;BME280;6053;51.382;6.768;2023-02-22T12:00:13;100743.09;;;13.38;100.00
11987;BME280;6053;51.382;6.768;2023-02-22T12:06:05;100738.22;;;13.29;100.00
11987;BME280;6053;51.382;6.768;2023-02-22T12:08:47;100740.66;;;13.42;100.00
11987;BME280;6053;51.382;6.768;2023-02-22T12:11:24;100739.19;;;13.23;100.00
11987;BME280;6053;51.382;6.768;2023-02-22T12:14:05;100738.06;;;13.35;100.00
11987;BME280;6053;51.382;6.768;2023-02-22T12:16:44;100737.13;;;13.30;100.00
11987;BME280;6053;51.382;6.768;2023-02-22T12:19:21;100740.00;;;13.23;100.00
11987;BME280;6053;51.382;6.768;2023-02-22T12:21:57;100731.91;;;13.33;100.00
11987;BME280;6053;51.382;6.768;2023-02-22T12:24:33;100732.91;;;13.27;100.00
11987;BME280;6053;51.382;6.768;2023-02-22T12:27:06;100729.56;;;13.42;100.00
11987;BME280;6053;51.382;6.768;2023-02-22T12:29:40;100731.25;;;13.60;100.00
11987;BME280;6053;51.382;6.768;2023-02-22T12:32:13;100727.53;;;13.71;100.00
11987;BME280;6053;51.382;6.768;2023-02-22T12:34:49;100727.97;;;13.46;100.00
11987;BME280;6053;51.382;6.768;2023-02-22T12:37:24;100728.22;;;13.44;100.00
11987;BME280;6053;51.382;6.768;2023-02-22T12:40:00;100719.50;;;13.36;100.00
11987;BME280;6053;51.382;6.768;2023-02-22T12:42:46;100728.31;;;13.50;100.00
11987;BME280;6053;51.382;6.768;2023-02-22T12:45:35;100719.38;;;13.48;100.00
11987;BME280;6053;51.382;6.768;2023-02-22T12:48:20;100724.88;;;13.59;100.00
11987;BME280;6053;51.382;6.768;2023-02-22T12:50:57;100730.31;;;13.54;100.00
11987;BME280;6053;51.382;6.768;2023-02-22T12:53:32;100720.81;;;13.67;100.00
11987;BME280;6053;51.382;6.768;2023-02-22T12:56:14;100728.47;;;13.60;100.00
11987;BME280;6053;51.382;6.768;2023-02-22T12:58:50;100727.88;;;13.58;100.00
11987;BME280;6053;51.382;6.768;2023-02-22T13:01:23;100725.63;;;13.55;100.00
11987;BME280;6053;51.382;6.768;2023-02-22T13:03:54;100720.47;;;13.63;100.00
11987;BME280;6053;51.382;6.768;2023-02-22T13:06:43;100727.97;;;13.63;100.00
11987;BME280;6053;51.382;6.768;2023-02-22T13:12:26;100721.50;;;13.57;100.00
11987;BME280;6053;51.382;6.768;2023-02-22T13:15:04;100721.38;;;13.86;100.00
11987;BME280;6053;51.382;6.768;2023-02-22T13:17:41;100722.25;;;13.70;100.00
11987;BME280;6053;51.382;6.768;2023-02-22T13:20:16;100715.69;;;13.76;100.00
11987;BME280;6053;51.382;6.768;2023-02-22T13:22:54;100714.69;;;13.82;100.00
11987;BME280;6053;51.382;6.768;2023-02-22T13:25:31;100718.38;;;13.71;100.00
11987;BME280;6053;51.382;6.768;2023-02-22T13:28:21;100713.50;;;13.61;100.00
11987;BME280;6053;51.382;6.768;2023-02-22T13:31:10;100721.91;;;13.66;100.00